Aeroporto :
LOGIN :

Iscrizione | Disclaimer

   EN    FR    IT 

 










Sommario :    VFR   VFR Marginale   IFR   IFR Intensivo   IFR Molto Intensivo
Visibilità : 
Base nubi : 
>= 8 km
>= 3000ft
5 / 8 km
1000 / 3000 ft
1500m / 5 km
500 / 1000 ft
800 / 1500m
200 / 500 ft
< 800m
< 200 ft
Simboli :   Temporali  Nebbia  Neve Forte  Precipitazioni Forti  Vento > 20 kt
SIGMETs :   Varie  Temporali  Ghiacco  Turbolenza  Onda orograficha  Ceneri Vulcaniche






- Altitudine del aeroporto : 56 ft
- Codice IATA : ILY


EGPI - Islay

ULTIMO METAR :
  • 240550Z AUTO 28008KT 8000 BKN005/// 08/08 Q1020 REDZ

METARs OBSOLETI :
  • 240520Z AUTO 26008KT 3600 BR BKN003/// SCT009/// 08/08 Q1020 RERA
  • 240450Z AUTO 27010KT 3800 -DZ SCT003/// BKN007/// BKN016/// 08/08 Q1020
  • 240420Z AUTO 25014KT 1600 -RADZ BKN003/// BKN007/// BKN009/// 08/08 Q1020
  • 240350Z AUTO 24016KT 2600 BR OVC003/// 08/08 Q1020
  • 240320Z AUTO 24014KT 1700 BR OVC003/// 08/08 Q1020
  • 240250Z AUTO 24014KT 220V280 2600 BR OVC003/// 08/08 Q1021

TAF TAF EGPI
Valido dal 24 a 06 ore il 24 a 15 ore UTC


240501Z 2406/2415 26012KT 9999 SCT003
TEMPO 2406/2415 1500 DZ BKN003



MetMap, La meteo Aeronautica in un colpo d'occhio ! - Copyright ORBIFLY Dicembre 2007 - Disclaimer

ORBIFLY MET'MAP TEAM :

Programmazione e sviluppo : Alexandra Zaïnal
Concezione : Baudouin d'Aumeries
Aiuto per la programmazione : Marc-Olivier Méhu
Supporto tecnico e logistico : Manuel Goepfert
Aiuto per la traduzione : Arnaldo La Scala

Contatto : metmap@orbifly.com




FONTI E CREDITI :

   NOAA